sensor_id;sensor_type;location;lat;lon;timestamp;pressure;altitude;pressure_sealevel;temperature;humidity
53758;BME280;39674;59.860;30.672;2022-10-19T00:01:18;100365.81;;;5.39;100.00
53758;BME280;39674;59.860;30.672;2022-10-19T00:03:57;100317.94;;;5.10;100.00
53758;BME280;39674;59.860;30.672;2022-10-19T00:06:37;100393.16;;;5.55;100.00
53758;BME280;39674;59.860;30.672;2022-10-19T00:09:42;100312.63;;;5.13;100.00
53758;BME280;39674;59.860;30.672;2022-10-19T00:12:31;100308.28;;;5.12;100.00
53758;BME280;39674;59.860;30.672;2022-10-19T00:15:39;100374.06;;;5.53;100.00
53758;BME280;39674;59.860;30.672;2022-10-19T00:18:20;100417.13;;;5.70;100.00
53758;BME280;39674;59.860;30.672;2022-10-19T00:21:20;100384.41;;;5.56;100.00
53758;BME280;39674;59.860;30.672;2022-10-19T00:24:07;100317.09;;;5.09;100.00
53758;BME280;39674;59.860;30.672;2022-10-19T00:26:55;100361.50;;;5.38;100.00
53758;BME280;39674;59.860;30.672;2022-10-19T00:29:46;100389.63;;;5.56;100.00
53758;BME280;39674;59.860;30.672;2022-10-19T00:32:44;100412.69;;;5.72;100.00
53758;BME280;39674;59.860;30.672;2022-10-19T00:35:28;100355.56;;;5.33;100.00
53758;BME280;39674;59.860;30.672;2022-10-19T00:38:12;100298.41;;;4.95;100.00
53758;BME280;39674;59.860;30.672;2022-10-19T00:41:02;100329.13;;;5.15;100.00
53758;BME280;39674;59.860;30.672;2022-10-19T00:44:56;100362.50;;;5.34;100.00
53758;BME280;39674;59.860;30.672;2022-10-19T00:47:23;100320.63;;;5.08;100.00
53758;BME280;39674;59.860;30.672;2022-10-19T00:50:01;100344.78;;;5.17;100.00
53758;BME280;39674;59.860;30.672;2022-10-19T00:52:43;100319.25;;;4.98;100.00
53758;BME280;39674;59.860;30.672;2022-10-19T00:55:33;100377.03;;;5.42;100.00
53758;BME280;39674;59.860;30.672;2022-10-19T00:58:12;100364.22;;;5.35;100.00
53758;BME280;39674;59.860;30.672;2022-10-19T01:01:00;100339.59;;;5.15;100.00
53758;BME280;39674;59.860;30.672;2022-10-19T01:05:11;100382.81;;;5.52;100.00
53758;BME280;39674;59.860;30.672;2022-10-19T01:07:11;100433.28;;;5.81;100.00
53758;BME280;39674;59.860;30.672;2022-10-19T01:10:36;100327.13;;;5.22;100.00
53758;BME280;39674;59.860;30.672;2022-10-19T01:13:39;100368.44;;;5.39;100.00
53758;BME280;39674;59.860;30.672;2022-10-19T01:16:58;100317.16;;;5.08;100.00
53758;BME280;39674;59.860;30.672;2022-10-19T01:20:22;100335.97;;;5.19;100.00
53758;BME280;39674;59.860;30.672;2022-10-19T01:24:00;100442.88;;;5.82;100.00
53758;BME280;39674;59.860;30.672;2022-10-19T01:30:15;100377.25;;;5.36;100.00
53758;BME280;39674;59.860;30.672;2022-10-19T01:33:36;100375.41;;;5.40;100.00
53758;BME280;39674;59.860;30.672;2022-10-19T01:36:40;100444.66;;;5.82;100.00
53758;BME280;39674;59.860;30.672;2022-10-19T01:39:19;100404.69;;;5.51;100.00
53758;BME280;39674;59.860;30.672;2022-10-19T01:42:00;100396.13;;;5.46;100.00
53758;BME280;39674;59.860;30.672;2022-10-19T01:44:40;100447.72;;;5.69;100.00
53758;BME280;39674;59.860;30.672;2022-10-19T01:47:52;100318.59;;;4.91;100.00
53758;BME280;39674;59.860;30.672;2022-10-19T01:50:48;100378.53;;;5.24;100.00
53758;BME280;39674;59.860;30.672;2022-10-19T01:53:45;100365.66;;;5.18;100.00
53758;BME280;39674;59.860;30.672;2022-10-19T01:56:51;100365.78;;;5.15;100.00
53758;BME280;39674;59.860;30.672;2022-10-19T01:59:35;100395.88;;;5.28;100.00
53758;BME280;39674;59.860;30.672;2022-10-19T02:02:24;100331.66;;;4.91;100.00
53758;BME280;39674;59.860;30.672;2022-10-19T02:05:07;100401.19;;;5.25;100.00
53758;BME280;39674;59.860;30.672;2022-10-19T02:08:04;100384.66;;;5.25;100.00
53758;BME280;39674;59.860;30.672;2022-10-19T02:11:08;100378.88;;;5.15;100.00
53758;BME280;39674;59.860;30.672;2022-10-19T02:13:44;100324.34;;;4.76;100.00
53758;BME280;39674;59.860;30.672;2022-10-19T02:16:25;100399.69;;;5.18;100.00
53758;BME280;39674;59.860;30.672;2022-10-19T02:19:18;100390.28;;;5.12;100.00
53758;BME280;39674;59.860;30.672;2022-10-19T02:21:53;100316.81;;;4.66;100.00
53758;BME280;39674;59.860;30.672;2022-10-19T02:24:47;100397.28;;;5.12;100.00
53758;BME280;39674;59.860;30.672;2022-10-19T02:27:33;100396.69;;;5.04;100.00
53758;BME280;39674;59.860;30.672;2022-10-19T02:30:08;100352.13;;;4.80;100.00
53758;BME280;39674;59.860;30.672;2022-10-19T02:32:51;100400.13;;;5.06;100.00
53758;BME280;39674;59.860;30.672;2022-10-19T02:35:27;100405.34;;;5.06;100.00
53758;BME280;39674;59.860;30.672;2022-10-19T02:38:06;100403.63;;;5.05;100.00
53758;BME280;39674;59.860;30.672;2022-10-19T02:41:03;100314.59;;;4.54;100.00
53758;BME280;39674;59.860;30.672;2022-10-19T02:44:17;100440.22;;;5.33;100.00
53758;BME280;39674;59.860;30.672;2022-10-19T02:46:56;100424.28;;;5.14;100.00
53758;BME280;39674;59.860;30.672;2022-10-19T02:49:33;100431.13;;;5.18;100.00
53758;BME280;39674;59.860;30.672;2022-10-19T02:52:22;100324.31;;;4.50;100.00
53758;BME280;39674;59.860;30.672;2022-10-19T02:54:55;100455.50;;;5.20;100.00
53758;BME280;39674;59.860;30.672;2022-10-19T02:57:50;100328.00;;;4.43;100.00
53758;BME280;39674;59.860;30.672;2022-10-19T03:00:23;100448.69;;;5.14;100.00
53758;BME280;39674;59.860;30.672;2022-10-19T03:03:18;100449.50;;;5.17;100.00
53758;BME280;39674;59.860;30.672;2022-10-19T03:06:00;100394.06;;;4.77;100.00
53758;BME280;39674;59.860;30.672;2022-10-19T03:08:44;100408.63;;;4.86;100.00
53758;BME280;39674;59.860;30.672;2022-10-19T03:11:16;100408.72;;;4.82;100.00
53758;BME280;39674;59.860;30.672;2022-10-19T03:13:50;100407.06;;;4.80;100.00
53758;BME280;39674;59.860;30.672;2022-10-19T03:16:27;100402.72;;;4.79;100.00
53758;BME280;39674;59.860;30.672;2022-10-19T03:18:58;100407.88;;;4.82;100.00
53758;BME280;39674;59.860;30.672;2022-10-19T03:21:29;100337.84;;;4.37;100.00
53758;BME280;39674;59.860;30.672;2022-10-19T03:24:14;100452.47;;;5.06;100.00
53758;BME280;39674;59.860;30.672;2022-10-19T03:26:47;100405.34;;;4.79;100.00
53758;BME280;39674;59.860;30.672;2022-10-19T03:29:30;100456.00;;;5.05;100.00
53758;BME280;39674;59.860;30.672;2022-10-19T03:31:59;100413.25;;;4.77;100.00
53758;BME280;39674;59.860;30.672;2022-10-19T03:34:30;100337.22;;;4.28;100.00
53758;BME280;39674;59.860;30.672;2022-10-19T03:37:15;100451.91;;;4.96;100.00
53758;BME280;39674;59.860;30.672;2022-10-19T03:39:49;100442.50;;;4.90;100.00
53758;BME280;39674;59.860;30.672;2022-10-19T03:42:28;100354.44;;;4.34;100.00
53758;BME280;39674;59.860;30.672;2022-10-19T03:45:02;100459.72;;;4.97;100.00
53758;BME280;39674;59.860;30.672;2022-10-19T03:47:39;100416.13;;;4.70;100.00
53758;BME280;39674;59.860;30.672;2022-10-19T03:50:12;100344.28;;;4.25;100.00
53758;BME280;39674;59.860;30.672;2022-10-19T03:52:47;100453.16;;;4.84;100.00
53758;BME280;39674;59.860;30.672;2022-10-19T03:55:22;100425.66;;;4.71;100.00
53758;BME280;39674;59.860;30.672;2022-10-19T03:58:03;100425.78;;;4.68;100.00
53758;BME280;39674;59.860;30.672;2022-10-19T04:00:46;100424.06;;;4.66;100.00
53758;BME280;39674;59.860;30.672;2022-10-19T04:03:20;100463.44;;;4.90;100.00
53758;BME280;39674;59.860;30.672;2022-10-19T04:06:10;100459.91;;;4.91;100.00
53758;BME280;39674;59.860;30.672;2022-10-19T04:08:47;100432.63;;;4.72;100.00
53758;BME280;39674;59.860;30.672;2022-10-19T04:11:23;100424.91;;;4.67;100.00
53758;BME280;39674;59.860;30.672;2022-10-19T04:14:16;100420.75;;;4.61;100.00
53758;BME280;39674;59.860;30.672;2022-10-19T04:16:50;100460.34;;;4.77;100.00
53758;BME280;39674;59.860;30.672;2022-10-19T04:19:20;100468.00;;;4.84;100.00
53758;BME280;39674;59.860;30.672;2022-10-19T04:22:04;100429.56;;;4.57;100.00
53758;BME280;39674;59.860;30.672;2022-10-19T04:24:47;100468.06;;;4.82;100.00
53758;BME280;39674;59.860;30.672;2022-10-19T04:27:18;100352.66;;;4.08;100.00
53758;BME280;39674;59.860;30.672;2022-10-19T04:29:51;100439.13;;;4.58;100.00
53758;BME280;39674;59.860;30.672;2022-10-19T04:32:25;100423.00;;;4.44;100.00
53758;BME280;39674;59.860;30.672;2022-10-19T04:34:56;100434.09;;;4.52;100.00
53758;BME280;39674;59.860;30.672;2022-10-19T04:37:26;100473.53;;;4.74;100.00
53758;BME280;39674;59.860;30.672;2022-10-19T04:40:21;100439.25;;;4.55;100.00
53758;BME280;39674;59.860;30.672;2022-10-19T04:42:54;100484.75;;;4.78;100.00
53758;BME280;39674;59.860;30.672;2022-10-19T04:45:38;100443.66;;;4.53;100.00
53758;BME280;39674;59.860;30.672;2022-10-19T04:48:09;100419.78;;;4.36;100.00
53758;BME280;39674;59.860;30.672;2022-10-19T04:50:44;100477.91;;;4.74;100.00
53758;BME280;39674;59.860;30.672;2022-10-19T04:53:38;100490.56;;;4.88;100.00
53758;BME280;39674;59.860;30.672;2022-10-19T04:56:13;100444.50;;;4.54;100.00
53758;BME280;39674;59.860;30.672;2022-10-19T04:58:52;100492.66;;;4.76;100.00
53758;BME280;39674;59.860;30.672;2022-10-19T05:01:27;100455.91;;;4.51;100.00
53758;BME280;39674;59.860;30.672;2022-10-19T05:04:02;100494.63;;;4.68;100.00
53758;BME280;39674;59.860;30.672;2022-10-19T05:06:33;100501.53;;;4.71;100.00
53758;BME280;39674;59.860;30.672;2022-10-19T05:09:06;100492.03;;;4.68;100.00
53758;BME280;39674;59.860;30.672;2022-10-19T05:11:39;100499.03;;;4.68;100.00
53758;BME280;39674;59.860;30.672;2022-10-19T05:14:17;100451.06;;;4.39;100.00
53758;BME280;39674;59.860;30.672;2022-10-19T05:16:50;100429.63;;;4.27;100.00
53758;BME280;39674;59.860;30.672;2022-10-19T05:19:27;100501.66;;;4.68;100.00
53758;BME280;39674;59.860;30.672;2022-10-19T05:22:02;100500.81;;;4.65;100.00
53758;BME280;39674;59.860;30.672;2022-10-19T05:24:34;100499.94;;;4.66;100.00
53758;BME280;39674;59.860;30.672;2022-10-19T05:27:13;100446.88;;;4.33;100.00
53758;BME280;39674;59.860;30.672;2022-10-19T05:29:46;100507.59;;;4.73;100.00
53758;BME280;39674;59.860;30.672;2022-10-19T05:32:24;100499.03;;;4.68;100.00
53758;BME280;39674;59.860;30.672;2022-10-19T05:34:52;100505.97;;;4.69;100.00
53758;BME280;39674;59.860;30.672;2022-10-19T05:37:22;100419.66;;;4.10;100.00
53758;BME280;39674;59.860;30.672;2022-10-19T05:39:55;100390.44;;;3.96;100.00
53758;BME280;39674;59.860;30.672;2022-10-19T05:42:36;100496.69;;;4.58;100.00
53758;BME280;39674;59.860;30.672;2022-10-19T05:45:10;100444.28;;;4.31;100.00
53758;BME280;39674;59.860;30.672;2022-10-19T05:47:49;100505.97;;;4.69;100.00
53758;BME280;39674;59.860;30.672;2022-10-19T05:50:22;100511.97;;;4.72;100.00
53758;BME280;39674;59.860;30.672;2022-10-19T05:52:51;100527.50;;;4.77;100.00
53758;BME280;39674;59.860;30.672;2022-10-19T05:55:35;100500.13;;;4.60;100.00
53758;BME280;39674;59.860;30.672;2022-10-19T05:58:06;100531.78;;;4.81;100.00
53758;BME280;39674;59.860;30.672;2022-10-19T06:00:38;100532.66;;;4.80;100.00
53758;BME280;39674;59.860;30.672;2022-10-19T06:03:08;100495.72;;;4.62;100.00
53758;BME280;39674;59.860;30.672;2022-10-19T06:05:43;100535.09;;;4.86;100.00
53758;BME280;39674;59.860;30.672;2022-10-19T06:08:12;100464.09;;;4.40;100.00
53758;BME280;39674;59.860;30.672;2022-10-19T06:11:22;100486.94;;;4.63;100.00
53758;BME280;39674;59.860;30.672;2022-10-19T06:13:58;100415.31;;;4.11;100.00
53758;BME280;39674;59.860;30.672;2022-10-19T06:16:31;100504.34;;;4.64;100.00
53758;BME280;39674;59.860;30.672;2022-10-19T06:19:11;100422.97;;;4.17;100.00
53758;BME280;39674;59.860;30.672;2022-10-19T06:21:52;100478.84;;;4.43;100.00
53758;BME280;39674;59.860;30.672;2022-10-19T06:24:27;100470.38;;;4.34;100.00
53758;BME280;39674;59.860;30.672;2022-10-19T06:27:24;100458.38;;;4.27;100.00
53758;BME280;39674;59.860;30.672;2022-10-19T06:30:22;100549.22;;;4.80;100.00
53758;BME280;39674;59.860;30.672;2022-10-19T06:33:19;100522.88;;;4.57;100.00
53758;BME280;39674;59.860;30.672;2022-10-19T06:36:04;100452.59;;;4.16;100.00
53758;BME280;39674;59.860;30.672;2022-10-19T06:38:44;100451.91;;;4.09;100.00
53758;BME280;39674;59.860;30.672;2022-10-19T06:41:37;100501.69;;;4.36;100.00
53758;BME280;39674;59.860;30.672;2022-10-19T06:44:23;100457.25;;;4.06;100.00
53758;BME280;39674;59.860;30.672;2022-10-19T06:47:27;100465.94;;;4.07;100.00
53758;BME280;39674;59.860;30.672;2022-10-19T06:51:30;100521.03;;;4.30;100.00
53758;BME280;39674;59.860;30.672;2022-10-19T06:54:20;100592.31;;;4.69;100.00
53758;BME280;39674;59.860;30.672;2022-10-19T06:57:09;100468.06;;;3.92;100.00
53758;BME280;39674;59.860;30.672;2022-10-19T06:59:46;100497.56;;;3.97;100.00
53758;BME280;39674;59.860;30.672;2022-10-19T07:03:32;100567.94;;;4.37;100.00
53758;BME280;39674;59.860;30.672;2022-10-19T07:06:16;100614.03;;;4.71;100.00
53758;BME280;39674;59.860;30.672;2022-10-19T07:09:00;100593.91;;;4.43;100.00
53758;BME280;39674;59.860;30.672;2022-10-19T07:11:38;100563.19;;;4.18;100.00
53758;BME280;39674;59.860;30.672;2022-10-19T07:14:23;100609.44;;;4.49;100.00
53758;BME280;39674;59.860;30.672;2022-10-19T07:17:12;100623.41;;;4.48;100.00
53758;BME280;39674;59.860;30.672;2022-10-19T07:19:58;100610.56;;;4.39;100.00
53758;BME280;39674;59.860;30.672;2022-10-19T07:22:56;100520.47;;;3.88;100.00
53758;BME280;39674;59.860;30.672;2022-10-19T07:25:36;100554.75;;;4.08;100.00
53758;BME280;39674;59.860;30.672;2022-10-19T07:30:56;100591.66;;;4.29;100.00
53758;BME280;39674;59.860;30.672;2022-10-19T07:31:35;100556.72;;;4.00;100.00
53758;BME280;39674;59.860;30.672;2022-10-19T07:34:18;100647.59;;;4.56;100.00
53758;BME280;39674;59.860;30.672;2022-10-19T07:37:05;100617.69;;;4.33;100.00
53758;BME280;39674;59.860;30.672;2022-10-19T07:39:41;100651.13;;;4.55;100.00
53758;BME280;39674;59.860;30.672;2022-10-19T07:42:32;100563.63;;;4.03;100.00
53758;BME280;39674;59.860;30.672;2022-10-19T07:45:33;100555.13;;;3.94;100.00
53758;BME280;39674;59.860;30.672;2022-10-19T07:51:30;100644.56;;;4.39;100.00
53758;BME280;39674;59.860;30.672;2022-10-19T07:54:07;100671.31;;;4.50;100.00
53758;BME280;39674;59.860;30.672;2022-10-19T07:57:09;100604.63;;;4.00;100.00
53758;BME280;39674;59.860;30.672;2022-10-19T08:00:14;100625.97;;;4.16;100.00
53758;BME280;39674;59.860;30.672;2022-10-19T08:13:03;100604.63;;;4.00;100.00
53758;BME280;39674;59.860;30.672;2022-10-19T08:21:03;100619.34;;;4.03;100.00
53758;BME280;39674;59.860;30.672;2022-10-19T08:23:01;100688.97;;;4.42;100.00
53758;BME280;39674;59.860;30.672;2022-10-19T08:26:19;100695.09;;;4.41;100.00
53758;BME280;39674;59.860;30.672;2022-10-19T08:29:04;100633.69;;;3.88;100.00
53758;BME280;39674;59.860;30.672;2022-10-19T08:34:43;100714.72;;;4.23;100.00
53758;BME280;39674;59.860;30.672;2022-10-19T08:37:15;100768.16;;;4.47;100.00
53758;BME280;39674;59.860;30.672;2022-10-19T08:39:59;100650.63;;;3.72;100.00
53758;BME280;39674;59.860;30.672;2022-10-19T08:43:32;100721.91;;;4.13;100.00
53758;BME280;39674;59.860;30.672;2022-10-19T08:46:20;100779.75;;;4.37;100.00
53758;BME280;39674;59.860;30.672;2022-10-19T08:49:59;100650.09;;;3.57;100.00
53758;BME280;39674;59.860;30.672;2022-10-19T08:52:27;100703.25;;;3.92;100.00
53758;BME280;39674;59.860;30.672;2022-10-19T08:55:10;100741.09;;;4.12;100.00
53758;BME280;39674;59.860;30.672;2022-10-19T08:58:09;100670.69;;;3.69;100.00
53758;BME280;39674;59.860;30.672;2022-10-19T09:01:10;100744.56;;;4.14;100.00
53758;BME280;39674;59.860;30.672;2022-10-19T09:04:06;100711.03;;;3.95;100.00
53758;BME280;39674;59.860;30.672;2022-10-19T09:07:02;100723.09;;;4.01;100.00
53758;BME280;39674;59.860;30.672;2022-10-19T09:09:43;100664.69;;;3.66;100.00
53758;BME280;39674;59.860;30.672;2022-10-19T09:12:42;100747.16;;;4.14;100.00
53758;BME280;39674;59.860;30.672;2022-10-19T09:15:28;100664.66;;;3.67;100.00
53758;BME280;39674;59.860;30.672;2022-10-19T09:18:32;100750.56;;;4.17;100.00
53758;BME280;39674;59.860;30.672;2022-10-19T09:21:25;100723.06;;;4.03;100.00
53758;BME280;39674;59.860;30.672;2022-10-19T09:24:34;100780.50;;;4.42;100.00
53758;BME280;39674;59.860;30.672;2022-10-19T09:27:17;100676.47;;;3.82;100.00
53758;BME280;39674;59.860;30.672;2022-10-19T09:30:32;100800.94;;;4.60;100.00
53758;BME280;39674;59.860;30.672;2022-10-19T09:33:29;100691.84;;;3.96;100.00
53758;BME280;39674;59.860;30.672;2022-10-19T09:36:30;100766.53;;;4.43;100.00
53758;BME280;39674;59.860;30.672;2022-10-19T09:39:34;100725.41;;;4.13;100.00
53758;BME280;39674;59.860;30.672;2022-10-19T09:42:22;100771.75;;;4.43;100.00
53758;BME280;39674;59.860;30.672;2022-10-19T09:45:31;100698.66;;;4.02;100.00
53758;BME280;39674;59.860;30.672;2022-10-19T09:48:49;100795.88;;;4.54;100.00
53758;BME280;39674;59.860;30.672;2022-10-19T09:53:15;100707.47;;;3.98;100.00
53758;BME280;39674;59.860;30.672;2022-10-19T09:56:26;100723.94;;;4.01;100.00
53758;BME280;39674;59.860;30.672;2022-10-19T09:58:59;100761.59;;;4.30;100.00
53758;BME280;39674;59.860;30.672;2022-10-19T10:02:38;100848.31;;;4.84;100.00
53758;BME280;39674;59.860;30.672;2022-10-19T10:06:04;100757.28;;;4.28;100.00
53758;BME280;39674;59.860;30.672;2022-10-19T10:09:29;100810.41;;;4.66;100.00
53758;BME280;39674;59.860;30.672;2022-10-19T10:12:06;100801.84;;;4.59;100.00
53758;BME280;39674;59.860;30.672;2022-10-19T10:15:25;100752.06;;;4.28;100.00
53758;BME280;39674;59.860;30.672;2022-10-19T10:18:04;100824.28;;;4.68;100.00
53758;BME280;39674;59.860;30.672;2022-10-19T10:21:01;100884.47;;;5.04;100.00
53758;BME280;39674;59.860;30.672;2022-10-19T10:23:38;100880.25;;;4.98;100.00
53758;BME280;39674;59.860;30.672;2022-10-19T10:26:37;100887.19;;;5.00;100.00
53758;BME280;39674;59.860;30.672;2022-10-19T10:29:23;100851.34;;;4.69;100.00
53758;BME280;39674;59.860;30.672;2022-10-19T10:31:57;100772.41;;;4.15;100.00
53758;BME280;39674;59.860;30.672;2022-10-19T10:34:34;100906.72;;;4.86;100.00
53758;BME280;39674;59.860;30.672;2022-10-19T10:37:18;100831.06;;;4.41;100.00
53758;BME280;39674;59.860;30.672;2022-10-19T10:39:53;100905.00;;;4.85;100.00
53758;BME280;39674;59.860;30.672;2022-10-19T10:42:42;100865.47;;;4.61;100.00
53758;BME280;39674;59.860;30.672;2022-10-19T10:45:33;100858.00;;;4.44;100.00
53758;BME280;39674;59.860;30.672;2022-10-19T10:48:34;100876.88;;;4.57;100.00
53758;BME280;39674;59.860;30.672;2022-10-19T10:51:25;100881.38;;;4.52;100.00
53758;BME280;39674;59.860;30.672;2022-10-19T10:54:25;100879.94;;;4.39;100.00
53758;BME280;39674;59.860;30.672;2022-10-19T10:57:20;100856.78;;;4.22;100.00
53758;BME280;39674;59.860;30.672;2022-10-19T11:00:03;100892.13;;;4.40;100.00
53758;BME280;39674;59.860;30.672;2022-10-19T11:02:52;100887.13;;;4.30;100.00
53758;BME280;39674;59.860;30.672;2022-10-19T11:05:38;100936.19;;;4.57;100.00
53758;BME280;39674;59.860;30.672;2022-10-19T11:08:17;100949.88;;;4.68;100.00
53758;BME280;39674;59.860;30.672;2022-10-19T11:11:00;100934.44;;;4.57;100.00
53758;BME280;39674;59.860;30.672;2022-10-19T11:14:07;100959.28;;;4.77;100.00
53758;BME280;39674;59.860;30.672;2022-10-19T11:17:17;100856.91;;;4.17;100.00
53758;BME280;39674;59.860;30.672;2022-10-19T11:20:05;100975.06;;;4.74;100.00
53758;BME280;39674;59.860;30.672;2022-10-19T11:22:49;100877.25;;;4.03;100.00
53758;BME280;39674;59.860;30.672;2022-10-19T11:25:43;100851.41;;;3.90;100.00
53758;BME280;39674;59.860;30.672;2022-10-19T11:28:55;100925.22;;;4.41;100.00
53758;BME280;39674;59.860;30.672;2022-10-19T11:32:13;100903.03;;;4.18;100.00
53758;BME280;39674;59.860;30.672;2022-10-19T11:35:05;100868.06;;;3.84;100.00
53758;BME280;39674;59.860;30.672;2022-10-19T11:38:14;100906.72;;;4.11;100.00
53758;BME280;39674;59.860;30.672;2022-10-19T11:41:03;100864.72;;;3.78;100.00
53758;BME280;39674;59.860;30.672;2022-10-19T11:44:27;100998.06;;;4.59;100.00
53758;BME280;39674;59.860;30.672;2022-10-19T11:47:30;100994.53;;;4.60;100.00
53758;BME280;39674;59.860;30.672;2022-10-19T11:51:00;100980.94;;;4.44;100.00
53758;BME280;39674;59.860;30.672;2022-10-19T11:53:58;100928.44;;;4.13;100.00
53758;BME280;39674;59.860;30.672;2022-10-19T11:58:03;100932.78;;;4.14;100.00
53758;BME280;39674;59.860;30.672;2022-10-19T12:04:05;100987.41;;;4.26;98.88
53758;BME280;39674;59.860;30.672;2022-10-19T12:07:33;100909.34;;;3.65;99.15
53758;BME280;39674;59.860;30.672;2022-10-19T12:10:46;100899.91;;;3.60;99.51
53758;BME280;39674;59.860;30.672;2022-10-19T12:13:42;100892.03;;;3.61;98.99
53758;BME280;39674;59.860;30.672;2022-10-19T12:16:59;101022.63;;;4.52;100.00
53758;BME280;39674;59.860;30.672;2022-10-19T12:19:52;100911.78;;;3.75;100.00
53758;BME280;39674;59.860;30.672;2022-10-19T12:23:14;100991.88;;;4.21;100.00
53758;BME280;39674;59.860;30.672;2022-10-19T12:26:13;101038.44;;;4.46;100.00
53758;BME280;39674;59.860;30.672;2022-10-19T12:28:58;100907.66;;;3.64;100.00
53758;BME280;39674;59.860;30.672;2022-10-19T12:31:35;101029.88;;;4.38;98.45
53758;BME280;39674;59.860;30.672;2022-10-19T12:34:24;100957.69;;;3.88;98.86
53758;BME280;39674;59.860;30.672;2022-10-19T12:37:48;100989.44;;;4.12;97.21
53758;BME280;39674;59.860;30.672;2022-10-19T12:40:48;100997.31;;;4.10;97.82
53758;BME280;39674;59.860;30.672;2022-10-19T12:47:18;101056.16;;;4.31;96.63
53758;BME280;39674;59.860;30.672;2022-10-19T12:50:04;101071.94;;;4.28;95.47
53758;BME280;39674;59.860;30.672;2022-10-19T12:53:26;100996.91;;;3.88;97.64
53758;BME280;39674;59.860;30.672;2022-10-19T13:00:36;101030.75;;;3.94;96.16
53758;BME280;39674;59.860;30.672;2022-10-19T13:03:21;101001.53;;;3.72;95.64
53758;BME280;39674;59.860;30.672;2022-10-19T13:06:28;100987.84;;;3.59;94.66
53758;BME280;39674;59.860;30.672;2022-10-19T13:09:06;100991.28;;;3.61;94.00
53758;BME280;39674;59.860;30.672;2022-10-19T13:16:06;100951.00;;;3.26;93.86
53758;BME280;39674;59.860;30.672;2022-10-19T13:20:57;101081.19;;;3.99;94.57
53758;BME280;39674;59.860;30.672;2022-10-19T13:31:31;100966.03;;;3.12;94.70
53758;BME280;39674;59.860;30.672;2022-10-19T13:34:28;101110.22;;;3.84;94.41
53758;BME280;39674;59.860;30.672;2022-10-19T13:37:35;100976.56;;;3.04;94.92
53758;BME280;39674;59.860;30.672;2022-10-19T13:40:54;100952.47;;;2.88;95.71
53758;BME280;39674;59.860;30.672;2022-10-19T13:43:39;101032.72;;;3.30;94.47
53758;BME280;39674;59.860;30.672;2022-10-19T13:46:57;101067.31;;;3.44;95.86
53758;BME280;39674;59.860;30.672;2022-10-19T13:54:04;100992.25;;;3.05;96.83
53758;BME280;39674;59.860;30.672;2022-10-19T13:57:21;100980.19;;;2.97;96.91
53758;BME280;39674;59.860;30.672;2022-10-19T14:00:13;101005.28;;;3.04;97.49
53758;BME280;39674;59.860;30.672;2022-10-19T14:03:25;101081.34;;;3.39;97.02
53758;BME280;39674;59.860;30.672;2022-10-19T14:06:23;101011.66;;;2.86;96.36
53758;BME280;39674;59.860;30.672;2022-10-19T14:09:20;101002.97;;;2.87;96.36
53758;BME280;39674;59.860;30.672;2022-10-19T14:12:39;101091.81;;;3.35;97.31
53758;BME280;39674;59.860;30.672;2022-10-19T14:15:20;101053.13;;;3.04;96.43
53758;BME280;39674;59.860;30.672;2022-10-19T14:18:38;101127.44;;;3.40;96.69
53758;BME280;39674;59.860;30.672;2022-10-19T14:21:14;101097.22;;;3.26;97.75
53758;BME280;39674;59.860;30.672;2022-10-19T14:23:58;101072.25;;;3.07;97.03
53758;BME280;39674;59.860;30.672;2022-10-19T14:26:28;101075.75;;;3.05;97.11
53758;BME280;39674;59.860;30.672;2022-10-19T14:29:17;101099.03;;;3.19;97.22
53758;BME280;39674;59.860;30.672;2022-10-19T14:31:58;101101.59;;;3.21;97.31
53758;BME280;39674;59.860;30.672;2022-10-19T14:35:01;101017.16;;;2.67;96.74
53758;BME280;39674;59.860;30.672;2022-10-19T14:37:59;101081.06;;;2.99;98.54
53758;BME280;39674;59.860;30.672;2022-10-19T14:40:49;101069.88;;;2.89;98.00
53758;BME280;39674;59.860;30.672;2022-10-19T14:43:35;101035.38;;;2.69;98.41
53758;BME280;39674;59.860;30.672;2022-10-19T14:46:23;101035.41;;;2.67;97.96
53758;BME280;39674;59.860;30.672;2022-10-19T14:49:03;101122.59;;;3.15;97.97
53758;BME280;39674;59.860;30.672;2022-10-19T14:52:03;101120.88;;;3.12;97.31
53758;BME280;39674;59.860;30.672;2022-10-19T14:54:55;101090.81;;;2.85;97.19
53758;BME280;39674;59.860;30.672;2022-10-19T14:57:51;101060.66;;;2.62;98.58
53758;BME280;39674;59.860;30.672;2022-10-19T15:00:40;101130.63;;;2.99;98.17
53758;BME280;39674;59.860;30.672;2022-10-19T15:03:16;101132.41;;;2.94;97.71
53758;BME280;39674;59.860;30.672;2022-10-19T15:05:57;101187.56;;;3.36;98.35
53758;BME280;39674;59.860;30.672;2022-10-19T15:08:45;101053.94;;;2.43;97.39
53758;BME280;39674;59.860;30.672;2022-10-19T15:11:30;101200.84;;;3.19;96.11
53758;BME280;39674;59.860;30.672;2022-10-19T15:14:13;101152.56;;;2.86;96.62
53758;BME280;39674;59.860;30.672;2022-10-19T15:16:54;101144.78;;;2.78;96.22
53758;BME280;39674;59.860;30.672;2022-10-19T15:19:29;101146.63;;;2.71;96.77
53758;BME280;39674;59.860;30.672;2022-10-19T15:22:47;101071.56;;;2.22;96.01
53758;BME280;39674;59.860;30.672;2022-10-19T15:26:12;101159.59;;;2.78;96.13
53758;BME280;39674;59.860;30.672;2022-10-19T15:29:09;101103.56;;;2.36;96.36
53758;BME280;39674;59.860;30.672;2022-10-19T15:31:51;101128.66;;;2.47;95.26
53758;BME280;39674;59.860;30.672;2022-10-19T15:34:30;101219.44;;;2.92;93.58
53758;BME280;39674;59.860;30.672;2022-10-19T15:37:16;101158.09;;;2.58;93.54